createdAt,value
2022-09-18T00:00:02.373Z,51.323418
2022-09-18T00:01:02.356Z,51.323418
2022-09-18T00:02:02.451Z,51.323425
2022-09-18T00:03:02.337Z,51.323402
2022-09-18T00:04:02.329Z,51.323418
2022-09-18T00:05:02.287Z,51.323418
2022-09-18T00:06:02.267Z,51.323406
2022-09-18T00:07:02.248Z,51.323406
2022-09-18T00:08:02.230Z,51.323391
2022-09-18T00:09:02.377Z,51.323406
2022-09-18T00:10:02.197Z,51.323410
2022-09-18T00:11:02.179Z,51.323429
2022-09-18T00:12:02.161Z,51.323448
2022-09-18T00:13:02.222Z,51.323444
2022-09-18T00:14:02.154Z,51.323467
2022-09-18T00:15:02.104Z,51.323425
2022-09-18T00:16:02.107Z,51.323406
2022-09-18T00:17:05.765Z,51.323387
2022-09-18T00:18:03.049Z,51.323376
2022-09-18T00:19:02.062Z,51.323372
2022-09-18T00:20:02.015Z,51.323383
2022-09-18T00:21:01.992Z,51.323410
2022-09-18T00:22:01.981Z,51.323402
2022-09-18T00:23:02.008Z,51.323387
2022-09-18T00:24:02.029Z,51.323380
2022-09-18T00:25:01.950Z,51.323395
2022-09-18T00:26:01.936Z,51.323387
2022-09-18T00:27:01.884Z,51.323433
2022-09-18T00:28:01.872Z,51.323402
2022-09-18T00:29:01.923Z,51.323395
2022-09-18T00:30:01.862Z,51.323391
2022-09-18T00:31:01.890Z,51.323414
2022-09-18T00:32:01.792Z,51.323387
2022-09-18T00:33:01.779Z,51.323391
2022-09-18T00:34:01.760Z,51.323406
2022-09-18T00:35:01.761Z,51.323391
2022-09-18T00:36:01.723Z,51.323387
2022-09-18T00:37:01.708Z,51.323391
2022-09-18T00:38:01.686Z,51.323383
2022-09-18T00:39:01.770Z,51.323364
2022-09-18T00:40:01.748Z,51.323402
2022-09-18T00:41:01.635Z,51.323418
2022-09-18T00:42:01.610Z,51.323402
2022-09-18T00:43:01.599Z,51.323406
2022-09-18T00:44:01.582Z,51.323410
2022-09-18T00:45:01.673Z,51.323418
2022-09-18T00:46:01.551Z,51.323364
2022-09-18T00:47:01.533Z,51.323353
2022-09-18T00:48:01.517Z,51.323383
2022-09-18T00:49:01.498Z,51.323402
2022-09-18T00:50:01.509Z,51.323376
2022-09-18T00:51:01.468Z,51.323437
2022-09-18T00:52:01.450Z,51.323448
2022-09-18T00:53:01.429Z,51.323425
2022-09-18T00:54:01.495Z,51.323437
2022-09-18T00:55:01.418Z,51.323437
2022-09-18T00:56:01.378Z,51.323425
2022-09-18T00:57:01.354Z,51.323437
2022-09-18T00:58:01.340Z,51.323414
2022-09-18T00:59:01.322Z,51.323425
2022-09-18T01:00:01.333Z,51.323429
2022-09-18T01:01:01.459Z,51.323410
2022-09-18T01:02:01.348Z,51.323441
2022-09-18T01:03:02.247Z,51.323425
2022-09-18T01:04:01.230Z,51.323418
2022-09-18T01:05:01.240Z,51.323425
2022-09-18T01:06:01.196Z,51.323418
2022-09-18T01:07:01.178Z,51.323421
2022-09-18T01:08:01.162Z,51.323387
2022-09-18T01:09:01.196Z,51.323399
2022-09-18T01:10:01.154Z,51.323406
2022-09-18T01:11:01.106Z,51.323452
2022-09-18T01:12:01.092Z,51.323441
2022-09-18T01:13:01.073Z,51.323448
2022-09-18T01:14:01.055Z,51.323437
2022-09-18T01:15:01.068Z,51.323441
2022-09-18T01:16:01.098Z,51.323444
2022-09-18T01:17:01.086Z,51.323425
2022-09-18T01:18:00.990Z,51.323418
2022-09-18T01:19:00.970Z,51.323399
2022-09-18T01:20:00.981Z,51.323410
2022-09-18T01:21:00.948Z,51.323429
2022-09-18T01:22:00.921Z,51.323418
2022-09-18T01:23:00.903Z,51.323418
2022-09-18T01:24:00.939Z,51.323395
2022-09-18T01:25:00.896Z,51.323399
2022-09-18T01:26:00.848Z,51.323395
2022-09-18T01:27:00.837Z,51.323402
2022-09-18T01:28:00.819Z,51.323406
2022-09-18T01:29:00.802Z,51.323387
2022-09-18T01:30:00.809Z,51.323391
2022-09-18T01:31:00.806Z,51.323414
2022-09-18T01:32:00.750Z,51.323410
2022-09-18T01:33:00.812Z,51.323410
2022-09-18T01:34:00.715Z,51.323391
2022-09-18T01:35:06.394Z,51.323402
2022-09-18T01:36:01.680Z,51.323406
2022-09-18T01:37:00.664Z,51.323372
2022-09-18T01:38:00.645Z,51.323406
2022-09-18T01:39:00.647Z,51.323406
2022-09-18T01:40:00.691Z,51.323399
2022-09-18T01:41:00.592Z,51.323402
2022-09-18T01:42:00.578Z,51.323410
2022-09-18T01:43:00.560Z,51.323410
2022-09-18T01:44:00.538Z,51.323406
2022-09-18T01:45:00.556Z,51.323391
2022-09-18T01:46:00.510Z,51.323402
2022-09-18T01:47:00.577Z,51.323418
2022-09-18T01:48:00.470Z,51.323429
2022-09-18T01:49:00.531Z,51.323425
2022-09-18T01:50:00.463Z,51.323414
2022-09-18T01:51:00.417Z,51.323425
2022-09-18T01:52:00.402Z,51.323418
2022-09-18T01:53:00.380Z,51.323441
2022-09-18T01:54:00.364Z,51.323471
2022-09-18T01:55:00.375Z,51.323441
2022-09-18T01:56:00.326Z,51.323425
2022-09-18T01:57:00.299Z,51.323418
2022-09-18T01:58:01.291Z,51.323406
2022-09-18T01:59:00.275Z,51.323421
2022-09-18T02:00:00.286Z,51.323437
2022-09-18T02:01:00.241Z,51.323429
2022-09-18T02:02:00.392Z,51.323406
2022-09-18T02:03:00.249Z,51.323391
2022-09-18T02:04:00.183Z,51.323410
2022-09-18T02:05:00.270Z,51.323406
2022-09-18T02:06:00.147Z,51.323429
2022-09-18T02:07:00.134Z,51.323421
2022-09-18T02:08:00.113Z,51.323441
2022-09-18T02:09:00.107Z,51.323437
2022-09-18T02:10:00.111Z,51.323414
2022-09-18T02:11:00.066Z,51.323387
2022-09-18T02:12:00.062Z,51.323402
2022-09-18T02:13:00.033Z,51.323406
2022-09-18T02:14:00.010Z,51.323437
2022-09-18T02:15:00.016Z,51.323437
2022-09-18T02:16:00.034Z,51.323441
2022-09-18T02:16:59.960Z,51.323471
2022-09-18T02:17:59.942Z,51.323414
2022-09-18T02:18:59.919Z,51.323414
2022-09-18T02:19:59.934Z,51.323460
2022-09-18T02:20:59.963Z,51.323467
2022-09-18T02:21:59.857Z,51.323437
2022-09-18T02:23:01.805Z,51.323441
2022-09-18T02:23:59.868Z,51.323441
2022-09-18T02:25:00.345Z,51.323444
2022-09-18T02:25:59.794Z,51.323463
2022-09-18T02:26:59.775Z,51.323475
2022-09-18T02:27:59.755Z,51.323448
2022-09-18T02:28:59.742Z,51.323441
2022-09-18T02:29:59.742Z,51.323460
2022-09-18T02:31:00.746Z,51.323425
2022-09-18T02:31:59.686Z,51.323414
2022-09-18T02:32:59.668Z,51.323437
2022-09-18T02:33:59.645Z,51.323429
2022-09-18T02:34:59.657Z,51.323410
2022-09-18T02:35:59.609Z,51.323429
2022-09-18T02:36:59.684Z,51.323441
2022-09-18T02:37:59.578Z,51.323448
2022-09-18T02:38:59.630Z,51.323456
2022-09-18T02:39:59.871Z,51.323471
2022-09-18T02:40:59.522Z,51.323448
2022-09-18T02:41:59.509Z,51.323437
2022-09-18T02:42:59.493Z,51.323456
2022-09-18T02:43:59.469Z,51.323471
2022-09-18T02:44:59.481Z,51.323483
2022-09-18T02:45:59.437Z,51.323498
2022-09-18T02:46:59.420Z,51.323479
2022-09-18T02:47:59.398Z,51.323456
2022-09-18T02:48:59.382Z,51.323475
2022-09-18T02:49:59.393Z,51.323490
2022-09-18T02:50:59.347Z,51.323444
2022-09-18T02:51:59.333Z,51.323444
2022-09-18T02:52:59.389Z,51.323444
2022-09-18T02:53:59.350Z,51.323456
2022-09-18T02:54:59.305Z,51.323456
2022-09-18T02:55:59.262Z,51.323429
2022-09-18T02:56:59.253Z,51.323383
2022-09-18T02:57:59.223Z,51.323425
2022-09-18T02:58:59.214Z,51.323437
2022-09-18T02:59:59.225Z,51.323460
2022-09-18T03:00:59.174Z,51.323456
2022-09-18T03:01:59.329Z,51.323463
2022-09-18T03:02:59.201Z,51.323441
2022-09-18T03:03:59.121Z,51.323391
2022-09-18T03:04:59.129Z,51.323456
2022-09-18T03:05:59.092Z,51.323467
2022-09-18T03:06:59.068Z,51.323444
2022-09-18T03:07:59.049Z,51.323414
2022-09-18T03:08:59.186Z,51.323437
2022-09-18T03:10:02.334Z,51.323326
2022-09-18T03:10:58.999Z,51.323402
2022-09-18T03:11:58.986Z,51.323391
2022-09-18T03:12:58.957Z,51.323391
2022-09-18T03:13:58.938Z,51.323429
2022-09-18T03:14:58.955Z,51.323486
2022-09-18T03:15:58.950Z,51.323467
2022-09-18T03:16:58.889Z,51.323448
2022-09-18T03:17:58.870Z,51.323418
2022-09-18T03:18:58.850Z,51.323399
2022-09-18T03:19:58.859Z,51.323441
2022-09-18T03:20:58.817Z,51.323452
2022-09-18T03:21:58.797Z,51.323433
2022-09-18T03:22:58.784Z,51.323425
2022-09-18T03:23:58.765Z,51.323444
2022-09-18T03:25:01.886Z,51.323425
2022-09-18T03:25:58.734Z,51.323414
2022-09-18T03:26:58.714Z,51.323475
2022-09-18T03:27:58.699Z,51.323544
2022-09-18T03:28:58.679Z,51.323452
2022-09-18T03:29:58.689Z,51.323441
2022-09-18T03:30:58.704Z,51.323402
2022-09-18T03:31:58.621Z,51.323429
2022-09-18T03:32:58.604Z,51.323429
2022-09-18T03:33:58.588Z,51.323391
2022-09-18T03:34:58.603Z,51.323418
2022-09-18T03:35:58.549Z,51.323383
2022-09-18T03:36:58.533Z,51.323357
2022-09-18T03:37:58.516Z,51.323349
2022-09-18T03:38:58.638Z,51.323353
2022-09-18T03:40:00.254Z,51.323368
2022-09-18T03:40:58.542Z,51.323410
2022-09-18T03:41:58.445Z,51.323418
2022-09-18T03:42:58.432Z,51.323418
2022-09-18T03:43:58.414Z,51.323433
2022-09-18T03:44:58.426Z,51.323410
2022-09-18T03:45:58.373Z,51.323410
2022-09-18T03:46:58.418Z,51.323380
2022-09-18T03:47:58.342Z,51.323376
2022-09-18T03:48:58.320Z,51.323395
2022-09-18T03:49:58.332Z,51.323402
2022-09-18T03:50:58.287Z,51.323406
2022-09-18T03:51:58.273Z,51.323380
2022-09-18T03:52:58.248Z,51.323463
2022-09-18T03:53:58.242Z,51.323494
2022-09-18T03:54:58.247Z,51.323509
2022-09-18T03:55:58.198Z,51.323467
2022-09-18T03:56:58.260Z,51.323490
2022-09-18T03:57:58.160Z,51.323452
2022-09-18T03:58:58.142Z,51.323437
2022-09-18T03:59:58.157Z,51.323399
2022-09-18T04:00:58.108Z,51.323402
2022-09-18T04:01:58.115Z,51.323364
2022-09-18T04:02:58.122Z,51.323376
2022-09-18T04:03:58.058Z,51.323399
2022-09-18T04:04:58.081Z,51.323406
2022-09-18T04:05:58.021Z,51.323410
2022-09-18T04:06:58.006Z,51.323410
2022-09-18T04:07:57.982Z,51.323444
2022-09-18T04:08:57.968Z,51.323437
2022-09-18T04:09:57.976Z,51.323410
2022-09-18T04:10:57.932Z,51.323376
2022-09-18T04:11:57.914Z,51.323387
2022-09-18T04:12:57.992Z,51.323391
2022-09-18T04:13:57.880Z,51.323410
2022-09-18T04:14:57.894Z,51.323414
2022-09-18T04:15:57.857Z,51.323402
2022-09-18T04:16:57.831Z,51.323387
2022-09-18T04:17:57.808Z,51.323425
2022-09-18T04:18:57.791Z,51.323425
2022-09-18T04:19:57.801Z,51.323421
2022-09-18T04:20:57.759Z,51.323402
2022-09-18T04:21:57.737Z,51.323410
2022-09-18T04:22:57.721Z,51.323441
2022-09-18T04:23:57.702Z,51.323421
2022-09-18T04:24:57.712Z,51.323429
2022-09-18T04:25:57.663Z,51.323414
2022-09-18T04:26:57.674Z,51.323399
2022-09-18T04:27:57.636Z,51.323395
2022-09-18T04:28:57.684Z,51.323372
2022-09-18T04:29:57.623Z,51.323406
2022-09-18T04:30:57.613Z,51.323410
2022-09-18T04:31:57.562Z,51.323421
2022-09-18T04:32:57.548Z,51.323410
2022-09-18T04:33:57.522Z,51.323406
2022-09-18T04:34:57.535Z,51.323410
2022-09-18T04:35:57.495Z,51.323399
2022-09-18T04:36:57.476Z,51.323406
2022-09-18T04:37:57.461Z,51.323395
2022-09-18T04:38:57.441Z,51.323395
2022-09-18T04:39:57.511Z,51.323399
2022-09-18T04:40:57.414Z,51.323391
2022-09-18T04:41:57.388Z,51.323399
2022-09-18T04:42:57.367Z,51.323402
2022-09-18T04:43:57.352Z,51.323433
2022-09-18T04:44:57.436Z,51.323410
2022-09-18T04:45:57.337Z,51.323402
2022-09-18T04:46:57.331Z,51.323421
2022-09-18T04:47:57.282Z,51.323402
2022-09-18T04:48:57.274Z,51.323421
2022-09-18T04:49:57.271Z,51.323399
2022-09-18T04:50:57.229Z,51.323402
2022-09-18T04:51:57.215Z,51.323418
2022-09-18T04:52:57.192Z,51.323399
2022-09-18T04:53:57.174Z,51.323399
2022-09-18T04:54:57.183Z,51.323414
2022-09-18T04:55:57.141Z,51.323414
2022-09-18T04:56:57.129Z,51.323357
2022-09-18T04:57:57.109Z,51.323383
2022-09-18T04:58:57.087Z,51.323368
2022-09-18T04:59:57.097Z,51.323334
2022-09-18T05:00:57.177Z,51.323395
2022-09-18T05:01:57.101Z,51.323421
2022-09-18T05:02:57.016Z,51.323429
2022-09-18T05:03:57.005Z,51.323406
2022-09-18T05:04:57.012Z,51.323391
2022-09-18T05:05:56.963Z,51.323383
2022-09-18T05:06:56.942Z,51.323387
2022-09-18T05:07:56.930Z,51.323372
2022-09-18T05:08:56.911Z,51.323383
2022-09-18T05:09:56.926Z,51.323395
2022-09-18T05:10:56.872Z,51.323391
2022-09-18T05:11:56.884Z,51.323402
2022-09-18T05:12:56.843Z,51.323437
2022-09-18T05:13:56.975Z,51.323425
2022-09-18T05:14:56.833Z,51.323437
2022-09-18T05:15:56.822Z,51.323418
2022-09-18T05:16:56.841Z,51.323429
2022-09-18T05:17:56.752Z,51.323421
2022-09-18T05:18:56.734Z,51.323406
2022-09-18T05:19:56.745Z,51.323402
2022-09-18T05:20:56.698Z,51.323421
2022-09-18T05:21:56.707Z,51.323410
2022-09-18T05:22:56.660Z,51.323418
2022-09-18T05:23:56.663Z,51.323410
2022-09-18T05:24:56.653Z,51.323364
2022-09-18T05:25:56.608Z,51.323387
2022-09-18T05:26:56.591Z,51.323387
2022-09-18T05:27:56.574Z,51.323383
2022-09-18T05:28:56.558Z,51.323372
2022-09-18T05:29:56.565Z,51.323387
2022-09-18T05:30:56.549Z,51.323391
2022-09-18T05:31:56.504Z,51.323368
2022-09-18T05:32:58.928Z,51.323391
2022-09-18T05:33:57.469Z,51.323391
2022-09-18T05:34:56.478Z,51.323410
2022-09-18T05:35:56.434Z,51.323391
2022-09-18T05:36:56.418Z,51.323391
2022-09-18T05:37:56.400Z,51.323387
2022-09-18T05:38:56.382Z,51.323391
2022-09-18T05:39:56.437Z,51.323414
2022-09-18T05:40:56.347Z,51.323383
2022-09-18T05:41:56.328Z,51.323387
2022-09-18T05:42:56.312Z,51.323387
2022-09-18T05:43:56.294Z,51.323380
2022-09-18T05:45:01.146Z,51.323429
2022-09-18T05:45:58.261Z,51.323437
2022-09-18T05:46:56.286Z,51.323402
2022-09-18T05:47:56.225Z,51.323376
2022-09-18T05:48:56.282Z,51.323360
2022-09-18T05:49:56.220Z,51.323376
2022-09-18T05:50:56.177Z,51.323349
2022-09-18T05:51:56.175Z,51.323399
2022-09-18T05:52:56.142Z,51.323414
2022-09-18T05:53:56.127Z,51.323414
2022-09-18T05:54:56.142Z,51.323410
2022-09-18T05:55:56.091Z,51.323395
2022-09-18T05:56:56.099Z,51.323399
2022-09-18T05:57:56.054Z,51.323410
2022-09-18T05:58:56.038Z,51.323383
2022-09-18T05:59:56.020Z,51.323406
2022-09-18T06:00:56.049Z,51.323395
2022-09-18T06:01:56.023Z,51.323421
2022-09-18T06:02:56.040Z,51.323448
2022-09-18T06:03:55.951Z,51.323410
2022-09-18T06:04:56.039Z,51.323399
2022-09-18T06:05:55.910Z,51.323395
2022-09-18T06:06:55.897Z,51.323406
2022-09-18T06:07:59.607Z,51.323414
2022-09-18T06:08:56.859Z,51.323421
2022-09-18T06:09:55.847Z,51.323414
2022-09-18T06:10:55.855Z,51.323418
2022-09-18T06:11:55.830Z,51.323418
2022-09-18T06:12:56.791Z,51.323421
2022-09-18T06:13:55.778Z,51.323425
2022-09-18T06:14:55.749Z,51.323406
2022-09-18T06:15:56.803Z,51.323425
2022-09-18T06:16:55.718Z,51.323425
2022-09-18T06:17:55.702Z,51.323395
2022-09-18T06:18:55.682Z,51.323391
2022-09-18T06:19:55.668Z,51.323387
2022-09-18T06:20:55.761Z,51.323368
2022-09-18T06:21:55.632Z,51.323421
2022-09-18T06:22:55.620Z,51.323444
2022-09-18T06:23:55.597Z,51.323357
2022-09-18T06:24:55.581Z,51.323376
2022-09-18T06:25:55.590Z,51.323448
2022-09-18T06:26:55.548Z,51.323383
2022-09-18T06:27:55.527Z,51.323406
2022-09-18T06:28:55.508Z,51.323421
2022-09-18T06:29:55.494Z,51.323418
2022-09-18T06:30:55.650Z,51.323360
2022-09-18T06:31:55.562Z,51.323410
2022-09-18T06:32:55.435Z,51.323364
2022-09-18T06:33:55.422Z,51.323380
2022-09-18T06:34:55.401Z,51.323380
2022-09-18T06:35:55.409Z,51.323387
2022-09-18T06:36:55.444Z,51.323448
2022-09-18T06:37:55.346Z,51.323441
2022-09-18T06:38:55.328Z,51.323414
2022-09-18T06:39:55.351Z,51.323414
2022-09-18T06:40:55.318Z,51.323406
2022-09-18T06:41:55.276Z,51.323418
2022-09-18T06:42:55.254Z,51.323429
2022-09-18T06:43:55.244Z,51.323437
2022-09-18T06:44:55.221Z,51.323410
2022-09-18T06:45:55.232Z,51.323410
2022-09-18T06:46:55.253Z,51.323421
2022-09-18T06:47:55.181Z,51.323425
2022-09-18T06:48:55.154Z,51.323441
2022-09-18T06:49:55.132Z,51.323441
2022-09-18T06:50:55.141Z,51.323421
2022-09-18T06:51:55.101Z,51.323406
2022-09-18T06:52:55.151Z,51.323414
2022-09-18T06:53:55.061Z,51.323429
2022-09-18T06:54:55.041Z,51.323410
2022-09-18T06:55:55.055Z,51.323406
2022-09-18T06:56:55.010Z,51.323421
2022-09-18T06:57:54.993Z,51.323399
2022-09-18T06:58:54.970Z,51.323410
2022-09-18T06:59:55.956Z,51.323425
2022-09-18T07:00:55.011Z,51.323414
2022-09-18T07:01:54.996Z,51.323402
2022-09-18T07:02:54.902Z,51.323421
2022-09-18T07:03:54.886Z,51.323444
2022-09-18T07:04:54.870Z,51.323421
2022-09-18T07:05:54.878Z,51.323421
2022-09-18T07:06:54.832Z,51.323433
2022-09-18T07:07:54.810Z,51.323425
2022-09-18T07:08:54.870Z,51.323406
2022-09-18T07:09:54.774Z,51.323402
2022-09-18T07:10:54.789Z,51.323410
2022-09-18T07:11:54.741Z,51.323433
2022-09-18T07:12:54.724Z,51.323429
2022-09-18T07:13:54.708Z,51.323444
2022-09-18T07:14:54.688Z,51.323418
2022-09-18T07:15:54.794Z,51.323414
2022-09-18T07:16:54.652Z,51.323425
2022-09-18T07:17:54.637Z,51.323410
2022-09-18T07:18:54.617Z,51.323429
2022-09-18T07:19:54.601Z,51.323421
2022-09-18T07:20:54.600Z,51.323421
2022-09-18T07:21:55.562Z,51.323425
2022-09-18T07:22:54.543Z,51.323425
2022-09-18T07:23:54.528Z,51.323421
2022-09-18T07:24:54.586Z,51.323433
2022-09-18T07:25:54.518Z,51.323418
2022-09-18T07:26:54.480Z,51.323414
2022-09-18T07:27:54.461Z,51.323429
2022-09-18T07:28:54.440Z,51.323410
2022-09-18T07:29:54.420Z,51.323425
2022-09-18T07:30:54.469Z,51.323425
2022-09-18T07:31:54.385Z,51.323421
2022-09-18T07:32:54.366Z,51.323437
2022-09-18T07:33:54.349Z,51.323429
2022-09-18T07:34:54.334Z,51.323429
2022-09-18T07:35:54.338Z,51.323414
2022-09-18T07:36:54.292Z,51.323391
2022-09-18T07:37:54.280Z,51.323418
2022-09-18T07:38:54.259Z,51.323444
2022-09-18T07:39:54.297Z,51.323452
2022-09-18T07:40:54.324Z,51.323429
2022-09-18T07:41:54.207Z,51.323437
2022-09-18T07:42:54.186Z,51.323414
2022-09-18T07:43:54.169Z,51.323425
2022-09-18T07:44:54.153Z,51.323429
2022-09-18T07:45:54.162Z,51.323421
2022-09-18T07:46:54.134Z,51.323418
2022-09-18T07:47:54.103Z,51.323433
2022-09-18T07:48:54.087Z,51.323421
2022-09-18T07:49:54.067Z,51.323418
2022-09-18T07:50:54.074Z,51.323380
2022-09-18T07:51:54.033Z,51.323429
2022-09-18T07:52:54.015Z,51.323418
2022-09-18T07:53:53.998Z,51.323391
2022-09-18T07:54:53.982Z,51.323429
2022-09-18T07:55:53.984Z,51.323444
2022-09-18T07:56:53.970Z,51.323441
2022-09-18T07:57:53.926Z,51.323429
2022-09-18T07:58:53.907Z,51.323463
2022-09-18T07:59:53.887Z,51.323483
2022-09-18T08:00:53.899Z,51.323452
2022-09-18T08:01:53.948Z,51.323406
2022-09-18T08:02:53.882Z,51.323437
2022-09-18T08:03:53.819Z,51.323414
2022-09-18T08:04:53.801Z,51.323429
2022-09-18T08:05:53.811Z,51.323444
2022-09-18T08:06:53.770Z,51.323448
2022-09-18T08:07:53.754Z,51.323509
2022-09-18T08:08:55.169Z,51.323486
2022-09-18T08:09:54.712Z,51.323467
2022-09-18T08:10:53.724Z,51.323494
2022-09-18T08:11:53.669Z,51.323410
2022-09-18T08:12:54.738Z,51.323410
2022-09-18T08:13:53.648Z,51.323441
2022-09-18T08:14:53.629Z,51.323368
2022-09-18T08:15:53.709Z,51.323406
2022-09-18T08:16:53.599Z,51.323536
2022-09-18T08:17:53.576Z,51.323483
2022-09-18T08:18:53.556Z,51.323448
2022-09-18T08:19:53.540Z,51.323460
2022-09-18T08:20:53.545Z,51.323433
2022-09-18T08:21:53.498Z,51.323524
2022-09-18T08:22:53.476Z,51.323494
2022-09-18T08:23:53.463Z,51.323509
2022-09-18T08:24:53.448Z,51.323433
2022-09-18T08:25:53.451Z,51.323418
2022-09-18T08:26:53.405Z,51.323376
2022-09-18T08:27:53.386Z,51.323376
2022-09-18T08:28:53.452Z,51.323395
2022-09-18T08:29:53.350Z,51.323368
2022-09-18T08:30:53.359Z,51.323406
2022-09-18T08:31:53.400Z,51.323410
2022-09-18T08:32:53.296Z,51.323410
2022-09-18T08:33:53.276Z,51.323425
2022-09-18T08:34:53.259Z,51.323456
2022-09-18T08:35:53.268Z,51.323444
2022-09-18T08:36:53.221Z,51.323364
2022-09-18T08:37:53.198Z,51.323387
2022-09-18T08:38:53.182Z,51.323410
2022-09-18T08:39:53.224Z,51.323418
2022-09-18T08:40:53.173Z,51.323402
2022-09-18T08:41:53.127Z,51.323421
2022-09-18T08:42:53.111Z,51.323395
2022-09-18T08:43:53.092Z,51.323395
2022-09-18T08:44:53.147Z,51.323410
2022-09-18T08:45:53.083Z,51.323418
2022-09-18T08:46:53.144Z,51.323444
2022-09-18T08:47:53.013Z,51.323421
2022-09-18T08:48:52.992Z,51.323437
2022-09-18T08:49:52.977Z,51.323406
2022-09-18T08:50:52.984Z,51.323383
2022-09-18T08:51:52.936Z,51.323391
2022-09-18T08:52:52.918Z,51.323414
2022-09-18T08:53:52.896Z,51.323395
2022-09-18T08:54:52.892Z,51.323433
2022-09-18T08:55:52.885Z,51.323399
2022-09-18T08:56:52.842Z,51.323402
2022-09-18T08:57:52.820Z,51.323414
2022-09-18T08:58:52.788Z,51.323414
2022-09-18T08:59:53.908Z,51.323391
2022-09-18T09:00:52.921Z,51.323418
2022-09-18T09:01:52.757Z,51.323395
2022-09-18T09:02:52.718Z,51.323395
2022-09-18T09:03:52.698Z,51.323399
2022-09-18T09:04:52.682Z,51.323410
2022-09-18T09:05:52.688Z,51.323410
2022-09-18T09:06:52.643Z,51.323402
2022-09-18T09:07:52.622Z,51.323429
2022-09-18T09:08:52.602Z,51.323395
2022-09-18T09:09:52.582Z,51.323418
2022-09-18T09:10:52.591Z,51.323421
2022-09-18T09:11:52.545Z,51.323399
2022-09-18T09:12:52.524Z,51.323410
2022-09-18T09:13:52.506Z,51.323421
2022-09-18T09:14:57.405Z,51.323441
2022-09-18T09:15:54.544Z,51.323448
2022-09-18T09:16:52.525Z,51.323425
2022-09-18T09:17:52.442Z,51.323410
2022-09-18T09:18:52.415Z,51.323418
2022-09-18T09:19:52.388Z,51.323421
2022-09-18T09:20:52.398Z,51.323387
2022-09-18T09:21:52.345Z,51.323402
2022-09-18T09:22:52.329Z,51.323399
2022-09-18T09:23:52.312Z,51.323380
2022-09-18T09:24:52.289Z,51.323383
2022-09-18T09:25:52.296Z,51.323364
2022-09-18T09:26:52.250Z,51.323402
2022-09-18T09:27:52.234Z,51.323399
2022-09-18T09:28:52.214Z,51.323418
2022-09-18T09:29:52.185Z,51.323421
2022-09-18T09:30:53.200Z,51.323418
2022-09-18T09:31:52.178Z,51.323418
2022-09-18T09:32:52.205Z,51.323429
2022-09-18T09:33:52.114Z,51.323418
2022-09-18T09:34:52.102Z,51.323349
2022-09-18T09:35:52.105Z,51.323406
2022-09-18T09:36:52.057Z,51.323406
2022-09-18T09:37:52.032Z,51.323414
2022-09-18T09:38:52.016Z,51.323414
2022-09-18T09:39:52.053Z,51.323433
2022-09-18T09:40:52.001Z,51.323418
2022-09-18T09:41:51.955Z,51.323387
2022-09-18T09:42:51.934Z,51.323402
2022-09-18T09:43:51.915Z,51.323410
2022-09-18T09:44:51.897Z,51.323410
2022-09-18T09:45:51.890Z,51.323418
2022-09-18T09:46:53.023Z,51.323421
2022-09-18T09:47:51.833Z,51.323387
2022-09-18T09:48:51.984Z,51.323387
2022-09-18T09:49:51.793Z,51.323402
2022-09-18T09:50:51.802Z,51.323414
2022-09-18T09:51:51.750Z,51.323418
2022-09-18T09:52:51.731Z,51.323395
2022-09-18T09:53:51.712Z,51.323395
2022-09-18T09:54:51.691Z,51.323391
2022-09-18T09:55:51.700Z,51.323387
2022-09-18T09:56:51.651Z,51.323402
2022-09-18T09:57:51.630Z,51.323402
2022-09-18T09:58:51.609Z,51.323402
2022-09-18T09:59:51.595Z,51.323395
2022-09-18T10:00:51.625Z,51.323418
2022-09-18T10:01:51.594Z,51.323418
2022-09-18T10:02:51.541Z,51.323418
2022-09-18T10:03:51.583Z,51.323402
2022-09-18T10:04:51.577Z,51.323402
2022-09-18T10:05:53.799Z,51.323410
2022-09-18T10:06:52.459Z,51.323425
2022-09-18T10:07:51.427Z,51.323425
2022-09-18T10:08:52.417Z,51.323414
2022-09-18T10:09:51.399Z,51.323410
2022-09-18T10:10:51.404Z,51.323429
2022-09-18T10:11:54.048Z,51.323448
2022-09-18T10:12:53.342Z,51.323429
2022-09-18T10:13:51.319Z,51.323414
2022-09-18T10:14:51.300Z,51.323425
2022-09-18T10:15:51.372Z,51.323429
2022-09-18T10:16:51.259Z,51.323425
2022-09-18T10:17:51.243Z,51.323402
2022-09-18T10:18:51.274Z,51.323406
2022-09-18T10:19:51.210Z,51.323414
2022-09-18T10:20:51.291Z,51.323410
2022-09-18T10:21:51.159Z,51.323402
2022-09-18T10:22:51.144Z,51.323402
2022-09-18T10:23:51.123Z,51.323410
2022-09-18T10:24:51.102Z,51.323414
2022-09-18T10:25:51.106Z,51.323399
2022-09-18T10:26:51.052Z,51.323399
2022-09-18T10:27:52.038Z,51.323410
2022-09-18T10:28:51.024Z,51.323414
2022-09-18T10:29:51.006Z,51.323395
2022-09-18T10:30:51.015Z,51.323418
2022-09-18T10:31:51.022Z,51.323410
2022-09-18T10:32:50.946Z,51.323410
2022-09-18T10:33:50.983Z,51.323425
2022-09-18T10:34:50.908Z,51.323437
2022-09-18T10:35:50.916Z,51.323441
2022-09-18T10:36:50.957Z,51.323437
2022-09-18T10:37:50.843Z,51.323437
2022-09-18T10:38:50.826Z,51.323437
2022-09-18T10:39:50.808Z,51.323433
2022-09-18T10:40:50.814Z,51.323441
2022-09-18T10:41:50.765Z,51.323456
2022-09-18T10:42:50.748Z,51.323448
2022-09-18T10:43:50.735Z,51.323429
2022-09-18T10:44:50.706Z,51.323433
2022-09-18T10:45:50.716Z,51.323456
2022-09-18T10:46:50.709Z,51.323456
2022-09-18T10:47:50.648Z,51.323448
2022-09-18T10:48:50.662Z,51.323437
2022-09-18T10:49:50.603Z,51.323387
2022-09-18T10:50:50.620Z,51.323368
2022-09-18T10:51:50.571Z,51.323399
2022-09-18T10:52:50.631Z,51.323444
2022-09-18T10:53:50.531Z,51.323437
2022-09-18T10:54:50.527Z,51.323437
2022-09-18T10:55:53.859Z,51.323433
2022-09-18T10:56:52.470Z,51.323425
2022-09-18T10:57:50.453Z,51.323429
2022-09-18T10:58:50.430Z,51.323441
2022-09-18T10:59:50.409Z,51.323429
2022-09-18T11:00:50.491Z,51.323429
2022-09-18T11:01:50.405Z,51.323414
2022-09-18T11:02:50.361Z,51.323410
2022-09-18T11:03:50.429Z,51.323402
2022-09-18T11:04:50.307Z,51.323402
2022-09-18T11:05:50.322Z,51.323402
2022-09-18T11:06:50.269Z,51.323395
2022-09-18T11:07:50.248Z,51.323406
2022-09-18T11:08:50.297Z,51.323421
2022-09-18T11:09:51.210Z,51.323402
2022-09-18T11:10:50.214Z,51.323418
2022-09-18T11:11:50.168Z,51.323421
2022-09-18T11:12:53.587Z,51.323429
2022-09-18T11:13:52.127Z,51.323425
2022-09-18T11:14:50.113Z,51.323418
2022-09-18T11:15:50.165Z,51.323418
2022-09-18T11:16:50.065Z,51.323395
2022-09-18T11:17:50.045Z,51.323410
2022-09-18T11:18:50.026Z,51.323380
2022-09-18T11:19:50.007Z,51.323368
2022-09-18T11:20:50.011Z,51.323376
2022-09-18T11:21:49.967Z,51.323383
2022-09-18T11:22:49.946Z,51.323414
2022-09-18T11:23:49.930Z,51.323414